Time;durP1;ratioP1;P1;durP2;ratioP2;P2;SDS_P1;SDS_P2;PMS_P1;PMS_P2;Temp;Humidity;BMP_temperature;BMP_pressure;BME280_temperature;BME280_humidity;BME280_pressure;Samples;Min_cycle;Max_cycle;Signal;HPM_P1;HPM_P2
2023/12/08 00:01:21;;;;;;;30.83;13.97;;;;;;;-145.18;100.00;46717.03;5074412;28;20032;-73
2023/12/08 00:03:47;;;;;;;26.03;12.53;;;;;;;-145.18;100.00;46717.03;5085362;28;20036;-73
2023/12/08 00:06:12;;;;;;;23.97;10.80;;;;;;;-145.18;100.00;46719.00;5080472;28;20032;-73
2023/12/08 00:08:38;;;;;;;25.03;12.60;;;;;;;-145.18;100.00;46720.94;5077465;28;20032;-73
2023/12/08 00:11:04;;;;;;;24.47;12.50;;;;;;;-145.18;100.00;46719.00;5080437;28;20047;-73
2023/12/08 00:13:30;;;;;;;27.30;13.70;;;;;;;-145.18;100.00;46719.00;5089498;28;20040;-73
2023/12/08 00:15:55;;;;;;;25.50;13.00;;;;;;;-145.18;100.00;46715.09;5079954;28;20261;-73
2023/12/08 00:18:21;;;;;;;26.07;12.67;;;;;;;-145.18;100.00;46713.13;5089251;28;20127;-74
2023/12/08 00:20:47;;;;;;;27.07;14.20;;;;;;;-145.18;100.00;46719.00;5075249;28;20489;-73
2023/12/08 00:23:12;;;;;;;32.57;14.17;;;;;;;-145.18;100.00;46715.09;5081737;28;20093;-73
2023/12/08 00:25:38;;;;;;;32.07;14.50;;;;;;;-145.18;100.00;46717.03;5074189;28;20033;-73
2023/12/08 00:28:03;;;;;;;29.73;13.93;;;;;;;-145.18;100.00;46713.13;5078960;28;20063;-73
2023/12/08 00:30:29;;;;;;;31.90;15.93;;;;;;;-145.18;100.00;46715.09;5087886;28;20040;-73
2023/12/08 00:32:54;;;;;;;35.73;15.27;;;;;;;-145.18;100.00;46715.09;5083887;28;20056;-74
2023/12/08 00:35:22;;;;;;;28.73;15.00;;;;;;;-145.18;100.00;46713.13;5077280;28;20495;-74
2023/12/08 00:37:47;;;;;;;32.63;16.43;;;;;;;-145.18;100.00;46717.03;5076994;28;20029;-73
2023/12/08 00:40:15;;;;;;;33.13;16.23;;;;;;;-145.18;100.00;46717.03;5074469;28;20259;-73
2023/12/08 00:42:40;;;;;;;32.30;14.80;;;;;;;-145.18;100.00;46717.03;5081638;28;20023;-74
2023/12/08 00:45:06;;;;;;;28.63;15.10;;;;;;;-145.18;100.00;46717.03;5074688;28;20268;-73
2023/12/08 00:47:31;;;;;;;32.53;14.50;;;;;;;-145.18;100.00;46719.00;5078504;28;20035;-73
2023/12/08 00:49:57;;;;;;;31.63;15.00;;;;;;;-145.18;100.00;46713.13;5075222;28;20095;-73
2023/12/08 00:52:23;;;;;;;31.50;16.13;;;;;;;-145.18;100.00;46713.13;5078822;28;20101;-73
2023/12/08 00:54:48;;;;;;;31.97;15.33;;;;;;;-145.18;100.00;46719.00;5089347;28;20042;-73
2023/12/08 00:57:14;;;;;;;29.80;14.30;;;;;;;-145.18;100.00;46717.03;5074419;28;20059;-73
2023/12/08 00:59:40;;;;;;;30.00;14.83;;;;;;;-145.18;100.00;46713.13;5077610;28;20039;-73
2023/12/08 01:02:05;;;;;;;27.60;14.80;;;;;;;-145.18;100.00;46713.13;5083663;28;20020;-73
2023/12/08 01:04:31;;;;;;;35.60;15.40;;;;;;;-145.18;100.00;46713.13;5086789;28;20043;-74
2023/12/08 01:06:56;;;;;;;31.37;15.70;;;;;;;-145.18;100.00;46715.09;5079868;28;20533;-68
2023/12/08 01:09:21;;;;;;;32.57;15.80;;;;;;;-145.18;100.00;46711.19;5080338;28;20031;-68
2023/12/08 01:11:47;;;;;;;29.57;15.13;;;;;;;-145.18;100.00;46711.19;5086239;28;20071;-68
2023/12/08 01:14:12;;;;;;;32.93;15.27;;;;;;;-145.18;100.00;46717.03;5060200;28;20118;-68
2023/12/08 01:16:40;;;;;;;34.27;16.23;;;;;;;-145.18;100.00;46713.13;5086529;28;20055;-68
2023/12/08 01:19:08;;;;;;;33.10;15.87;;;;;;;-145.18;100.00;46715.09;5073295;28;20091;-69
2023/12/08 01:21:35;;;;;;;33.23;17.00;;;;;;;-145.18;100.00;46715.09;5080258;28;20268;-68
2023/12/08 01:24:00;;;;;;;32.57;14.63;;;;;;;-145.18;100.00;46711.19;5077253;28;20265;-68
2023/12/08 01:26:26;;;;;;;32.47;15.50;;;;;;;-145.18;100.00;46711.19;5079446;28;20263;-68
2023/12/08 01:28:51;;;;;;;37.17;17.10;;;;;;;-145.18;100.00;46711.19;5073172;28;20446;-68
2023/12/08 01:31:16;;;;;;;29.23;15.20;;;;;;;-145.18;100.00;46713.13;5073470;28;20044;-68
2023/12/08 01:33:42;;;;;;;30.47;15.37;;;;;;;-145.18;100.00;46715.09;5077053;28;20052;-68
2023/12/08 01:36:07;;;;;;;33.33;15.23;;;;;;;-145.18;100.00;46717.03;5073025;28;20524;-68
2023/12/08 01:38:33;;;;;;;36.63;16.30;;;;;;;-145.18;100.00;46711.19;5072641;28;20037;-68
2023/12/08 01:40:58;;;;;;;30.17;15.53;;;;;;;-145.18;100.00;46711.19;5076535;28;20086;-68
2023/12/08 01:43:23;;;;;;;31.47;15.93;;;;;;;-145.18;100.00;46715.09;5083115;28;20427;-68
2023/12/08 01:45:49;;;;;;;32.83;16.60;;;;;;;-145.18;100.00;46713.13;5075483;28;20111;-68
2023/12/08 01:48:15;;;;;;;34.03;15.57;;;;;;;-145.18;100.00;46711.19;5072645;28;20402;-68
2023/12/08 01:50:40;;;;;;;32.07;14.60;;;;;;;-145.18;100.00;46717.03;5081175;28;20081;-68
2023/12/08 01:53:06;;;;;;;31.30;15.50;;;;;;;-145.18;100.00;46715.09;5075237;28;20031;-68
2023/12/08 01:55:32;;;;;;;28.40;14.83;;;;;;;-145.18;100.00;46713.13;5072509;28;20525;-68
2023/12/08 01:57:59;;;;;;;35.50;16.50;;;;;;;-145.18;100.00;46713.13;5078749;28;20043;-69
2023/12/08 02:00:25;;;;;;;33.73;16.07;;;;;;;-145.18;100.00;46709.22;5080479;28;20249;-68
2023/12/08 02:02:51;;;;;;;39.67;16.33;;;;;;;-145.18;100.00;46709.22;5078641;28;20265;-68
2023/12/08 02:05:18;;;;;;;28.53;14.77;;;;;;;-145.18;100.00;46709.22;5072501;28;20443;-68
2023/12/08 02:07:44;;;;;;;36.53;15.57;;;;;;;-145.18;100.00;46713.13;5070716;28;20480;-68
2023/12/08 02:10:09;;;;;;;32.33;16.17;;;;;;;-145.18;100.00;46709.22;5072046;28;20287;-68
2023/12/08 02:12:35;;;;;;;31.03;15.40;;;;;;;-145.18;100.00;46709.22;5075260;28;20052;-68
2023/12/08 02:15:00;;;;;;;31.97;15.83;;;;;;;-145.18;100.00;46709.22;5075026;28;20047;-68
2023/12/08 02:17:38;;;;;;;32.93;15.73;;;;;;;-145.18;100.00;46711.19;5072204;28;20033;-68
2023/12/08 02:20:06;;;;;;;36.67;15.90;;;;;;;-145.18;100.00;46709.22;5074805;28;20038;-68
2023/12/08 02:22:33;;;;;;;31.60;15.57;;;;;;;-145.18;100.00;46705.31;5073209;28;20272;-68
2023/12/08 02:24:58;;;;;;;34.30;16.13;;;;;;;-145.18;100.00;46707.28;5071633;28;20316;-68
2023/12/08 02:27:24;;;;;;;33.73;16.27;;;;;;;-145.18;100.00;46709.22;5072238;28;20928;-68
2023/12/08 02:29:49;;;;;;;33.10;16.17;;;;;;;-145.18;100.00;46707.28;5072312;28;20074;-68
2023/12/08 02:32:40;;;;;;;34.57;15.77;;;;;;;-145.18;100.00;46703.38;5072550;28;20056;-68
2023/12/08 02:35:08;;;;;;;33.37;15.90;;;;;;;-145.18;100.00;46709.22;5074136;28;20044;-69
2023/12/08 02:37:36;;;;;;;39.03;17.07;;;;;;;-145.18;100.00;46709.22;5073097;28;20265;-68
2023/12/08 02:40:06;;;;;;;35.43;16.73;;;;;;;-145.18;100.00;46705.31;5078023;28;20277;-68
2023/12/08 02:42:32;;;;;;;31.63;16.50;;;;;;;-145.18;100.00;46707.28;5082899;28;20372;-68
2023/12/08 02:44:57;;;;;;;33.97;16.73;;;;;;;-145.18;100.00;46705.31;5082465;28;20262;-68
2023/12/08 02:47:23;;;;;;;35.00;15.77;;;;;;;-145.18;100.00;46707.28;5080408;28;20812;-68
2023/12/08 02:49:48;;;;;;;35.23;16.87;;;;;;;-145.18;100.00;46709.22;5071915;28;20031;-68
2023/12/08 02:52:14;;;;;;;41.03;17.47;;;;;;;-145.18;100.00;46705.31;5077004;28;20408;-68
2023/12/08 02:54:39;;;;;;;34.87;16.07;;;;;;;-145.18;100.00;46705.31;5076084;28;20028;-68
2023/12/08 02:57:05;;;;;;;34.53;15.57;;;;;;;-145.18;100.00;46707.28;5081968;28;20092;-68
2023/12/08 02:59:30;;;;;;;32.97;15.90;;;;;;;-145.18;100.00;46703.38;5077938;28;20028;-68
2023/12/08 03:01:55;;;;;;;35.40;15.37;;;;;;;-145.18;100.00;46703.38;5076456;28;20063;-68
2023/12/08 03:04:21;;;;;;;38.67;17.37;;;;;;;-145.18;100.00;46701.41;5090986;28;20499;-68
2023/12/08 03:06:47;;;;;;;34.60;16.57;;;;;;;-145.18;100.00;46701.41;5076459;28;20037;-68
2023/12/08 03:09:12;;;;;;;36.13;16.50;;;;;;;-145.18;100.00;46695.56;5075940;28;20036;-68
2023/12/08 03:11:38;;;;;;;34.70;15.60;;;;;;;-145.18;100.00;46701.41;5079172;28;20465;-68
2023/12/08 03:14:04;;;;;;;34.20;16.87;;;;;;;-145.18;100.00;46701.41;5074099;28;20029;-68
2023/12/08 03:16:29;;;;;;;33.57;16.60;;;;;;;-145.18;100.00;46705.31;5074230;28;20314;-68
2023/12/08 03:18:54;;;;;;;29.03;15.43;;;;;;;-145.18;100.00;46705.31;5081337;28;20399;-68
2023/12/08 03:21:24;;;;;;;32.70;15.03;;;;;;;-145.18;100.00;46693.59;5075204;28;20144;-68
2023/12/08 03:23:50;;;;;;;33.43;15.67;;;;;;;-145.18;100.00;46705.31;5075879;28;20032;-68
2023/12/08 03:26:15;;;;;;;34.30;15.03;;;;;;;-145.18;100.00;46701.41;5086386;28;20362;-68
2023/12/08 03:28:41;;;;;;;33.60;16.30;;;;;;;-145.18;100.00;46699.47;5083029;28;20028;-68
2023/12/08 03:31:06;;;;;;;36.00;16.10;;;;;;;-145.18;100.00;46685.78;5089740;28;20381;-68
2023/12/08 03:33:31;;;;;;;33.83;16.27;;;;;;;-145.18;100.00;46681.88;5090678;28;20392;-68
2023/12/08 03:35:57;;;;;;;36.23;16.37;;;;;;;-145.18;100.00;46701.41;5090870;28;20048;-68
2023/12/08 03:38:22;;;;;;;32.13;16.33;;;;;;;-145.18;100.00;46705.31;5079254;28;20047;-73
2023/12/08 03:40:47;;;;;;;35.53;16.27;;;;;;;-145.18;100.00;46683.84;5093282;28;20040;-73
2023/12/08 03:43:13;;;;;;;30.80;16.20;;;;;;;-145.18;100.00;46689.69;5081666;28;20028;-73
2023/12/08 03:45:38;;;;;;;32.23;15.67;;;;;;;-145.18;100.00;46695.56;5080533;28;20036;-73
2023/12/08 03:48:04;;;;;;;36.93;16.00;;;;;;;-145.18;100.00;46699.47;5085553;28;20039;-73
2023/12/08 03:50:29;;;;;;;32.40;16.13;;;;;;;-145.18;100.00;46695.56;5079577;28;20090;-73
2023/12/08 03:52:55;;;;;;;34.83;16.67;;;;;;;-145.18;100.00;46689.69;5080692;28;20108;-73
2023/12/08 03:55:22;;;;;;;34.90;15.93;;;;;;;-145.18;100.00;46695.56;5092203;28;20039;-73
2023/12/08 03:57:48;;;;;;;33.47;16.50;;;;;;;-145.18;100.00;46681.88;5080350;28;20682;-73
2023/12/08 04:00:14;;;;;;;33.43;16.33;;;;;;;-145.18;100.00;46697.50;5085869;28;20272;-73
2023/12/08 04:02:40;;;;;;;38.07;16.57;;;;;;;-145.18;100.00;46703.38;5104900;28;20818;-73
2023/12/08 04:05:05;;;;;;;28.47;14.27;;;;;;;-145.18;100.00;46693.59;5074057;28;20036;-73
2023/12/08 04:07:31;;;;;;;36.50;16.97;;;;;;;-145.18;100.00;46683.84;5074462;28;20036;-73
2023/12/08 04:09:56;;;;;;;33.57;15.60;;;;;;;-145.18;100.00;46689.69;5079883;28;20032;-73
2023/12/08 04:12:22;;;;;;;33.03;17.30;;;;;;;-145.18;100.00;46687.75;5081007;28;20132;-73
2023/12/08 04:14:47;;;;;;;34.90;16.27;;;;;;;-145.18;100.00;46685.78;5080596;28;20426;-74
2023/12/08 04:17:13;;;;;;;33.63;16.07;;;;;;;-145.18;100.00;46681.88;5089116;28;20055;-73
2023/12/08 04:19:38;;;;;;;32.13;15.93;;;;;;;-145.18;100.00;46677.97;5088661;28;20040;-74
2023/12/08 04:22:04;;;;;;;30.60;16.00;;;;;;;-145.18;100.00;46687.75;5090578;28;20032;-73
2023/12/08 04:24:29;;;;;;;31.17;15.63;;;;;;;-145.18;100.00;46687.75;5074942;28;20492;-73
2023/12/08 04:26:55;;;;;;;33.03;16.23;;;;;;;-145.18;100.00;46697.50;5083546;28;20032;-73
2023/12/08 04:29:20;;;;;;;35.73;17.23;;;;;;;-145.18;100.00;46689.69;5087078;28;20564;-73
2023/12/08 04:31:45;;;;;;;33.03;15.70;;;;;;;-145.18;100.00;46685.78;5084893;28;20032;-73
2023/12/08 04:34:11;;;;;;;35.93;16.20;;;;;;;-145.18;100.00;46697.50;5082522;28;20027;-73
2023/12/08 04:36:36;;;;;;;32.43;15.43;;;;;;;-145.18;100.00;46683.84;5086945;28;20120;-74
2023/12/08 04:39:02;;;;;;;32.10;15.43;;;;;;;-145.18;100.00;46683.84;5082475;28;20594;-73
2023/12/08 04:41:27;;;;;;;31.20;15.93;;;;;;;-145.18;100.00;46679.94;5083172;28;20525;-74
2023/12/08 04:43:53;;;;;;;31.93;15.40;;;;;;;-145.18;100.00;46685.78;5093604;28;20040;-73
2023/12/08 04:46:18;;;;;;;36.77;16.03;;;;;;;-145.18;100.00;46685.78;5085796;28;20040;-74
2023/12/08 04:48:44;;;;;;;34.20;15.70;;;;;;;-145.18;100.00;46685.78;5073936;28;20070;-68
2023/12/08 04:51:09;;;;;;;38.10;17.80;;;;;;;-145.18;100.00;46685.78;5077256;28;20040;-68
2023/12/08 04:53:34;;;;;;;33.03;16.83;;;;;;;-145.18;100.00;46691.66;5076157;28;20484;-68
2023/12/08 04:56:00;;;;;;;32.70;16.60;;;;;;;-145.18;100.00;46691.66;5086289;28;20032;-68
2023/12/08 04:58:25;;;;;;;33.33;15.33;;;;;;;-145.18;100.00;46685.78;5086334;28;20391;-68
2023/12/08 05:00:57;;;;;;;36.70;16.23;;;;;;;-145.18;100.00;46683.84;5081722;28;20043;-68
2023/12/08 05:03:23;;;;;;;33.43;15.53;;;;;;;-145.18;100.00;46683.84;5087483;28;20436;-68
2023/12/08 05:05:49;;;;;;;32.13;16.23;;;;;;;-145.18;100.00;46676.03;5084677;28;20287;-68
2023/12/08 05:08:14;;;;;;;32.93;16.17;;;;;;;-145.18;100.00;46679.94;5091564;28;20042;-68
2023/12/08 05:10:39;;;;;;;35.37;15.73;;;;;;;-145.18;100.00;46681.88;5084608;28;20031;-68
2023/12/08 05:13:05;;;;;;;32.07;16.23;;;;;;;-145.18;100.00;46683.84;5086302;28;20516;-68
2023/12/08 05:15:30;;;;;;;32.23;15.77;;;;;;;-145.18;100.00;46697.50;5053312;28;20032;-68
2023/12/08 05:17:55;;;;;;;36.10;16.30;;;;;;;-145.18;100.00;46674.06;5083680;28;20071;-68
2023/12/08 05:20:21;;;;;;;33.20;16.03;;;;;;;-145.18;100.00;46681.88;5088438;28;20115;-68
2023/12/08 05:22:46;;;;;;;33.20;15.70;;;;;;;-145.18;100.00;46679.94;5092027;28;20031;-68
2023/12/08 05:25:12;;;;;;;37.80;16.47;;;;;;;-145.18;100.00;46681.88;5089517;28;20040;-68
2023/12/08 05:27:37;;;;;;;34.60;17.07;;;;;;;-145.18;100.00;46679.94;5090086;28;20679;-68
2023/12/08 05:30:03;;;;;;;36.73;17.07;;;;;;;-145.18;100.00;46674.06;5085416;28;20088;-68
2023/12/08 05:32:29;;;;;;;39.87;15.87;;;;;;;-145.18;100.00;46679.94;5084101;28;20499;-68
2023/12/08 05:34:54;;;;;;;33.80;15.73;;;;;;;-145.18;100.00;46687.75;5099732;28;20024;-68
2023/12/08 05:37:20;;;;;;;39.53;17.17;;;;;;;-145.18;100.00;46683.84;5078904;28;20035;-68
2023/12/08 05:39:45;;;;;;;32.03;16.67;;;;;;;-145.18;100.00;46679.94;5066084;28;20041;-68
2023/12/08 05:42:10;;;;;;;32.83;15.80;;;;;;;-145.18;100.00;46685.78;5080631;28;20511;-68
2023/12/08 05:44:36;;;;;;;36.90;16.47;;;;;;;-145.18;100.00;46681.88;5081723;28;20035;-68
2023/12/08 05:47:02;;;;;;;32.20;16.00;;;;;;;-145.18;100.00;46676.03;5086765;28;20036;-68
2023/12/08 05:49:27;;;;;;;36.07;15.70;;;;;;;-145.18;100.00;46676.03;5086192;28;20719;-68
2023/12/08 05:51:53;;;;;;;31.80;15.87;;;;;;;-145.18;100.00;46681.88;5082674;28;20253;-68
2023/12/08 05:54:18;;;;;;;32.83;15.07;;;;;;;-145.18;100.00;46679.94;5083086;28;20051;-68
2023/12/08 05:56:44;;;;;;;29.00;15.43;;;;;;;-145.18;100.00;46672.13;5088853;28;20400;-68
2023/12/08 05:59:09;;;;;;;32.90;15.70;;;;;;;-145.18;100.00;46676.03;5078488;28;20033;-68
2023/12/08 06:01:34;;;;;;;31.87;15.33;;;;;;;-145.18;100.00;46670.16;5077141;28;20032;-68
2023/12/08 06:04:00;;;;;;;31.80;15.90;;;;;;;-145.18;100.00;46689.69;5081155;28;20028;-68
2023/12/08 06:06:27;;;;;;;32.57;15.73;;;;;;;-145.18;100.00;46677.97;5082337;28;20039;-68
2023/12/08 06:08:53;;;;;;;39.33;17.20;;;;;;;-145.18;100.00;46691.66;5086542;28;20098;-68
2023/12/08 06:11:18;;;;;;;36.93;15.63;;;;;;;-145.18;100.00;46679.94;5084160;28;20761;-68
2023/12/08 06:13:43;;;;;;;36.23;15.57;;;;;;;-145.18;100.00;46689.69;5076632;28;20382;-68
2023/12/08 06:16:09;;;;;;;41.13;16.43;;;;;;;-145.18;100.00;46691.66;5072147;28;20075;-68
2023/12/08 06:18:34;;;;;;;34.07;15.60;;;;;;;-145.18;100.00;46679.94;5079768;28;20031;-68
2023/12/08 06:21:00;;;;;;;32.43;15.70;;;;;;;-145.18;100.00;46674.06;5076189;28;20075;-68
2023/12/08 06:23:25;;;;;;;32.13;16.53;;;;;;;-145.18;100.00;46676.03;5078910;28;20047;-68
2023/12/08 06:25:51;;;;;;;32.40;16.53;;;;;;;-145.18;100.00;46685.78;5076566;28;20032;-68
2023/12/08 06:28:17;;;;;;;34.70;16.00;;;;;;;-145.18;100.00;46676.03;5079114;28;20040;-68
2023/12/08 06:30:42;;;;;;;35.37;15.90;;;;;;;-145.18;100.00;46672.13;5083687;28;20280;-68
2023/12/08 06:33:07;;;;;;;31.17;15.90;;;;;;;-145.18;100.00;46674.06;5054317;28;20028;-67
2023/12/08 06:35:33;;;;;;;33.97;16.03;;;;;;;-145.18;100.00;46679.94;5076662;28;20052;-68
2023/12/08 06:37:58;;;;;;;35.07;17.13;;;;;;;-145.18;100.00;46681.88;5072383;28;20476;-68
2023/12/08 06:40:24;;;;;;;37.00;15.77;;;;;;;-145.18;100.00;46677.97;5084070;28;20111;-68
2023/12/08 06:42:49;;;;;;;35.90;16.53;;;;;;;-145.18;100.00;46674.06;5080361;28;20025;-68
2023/12/08 06:45:14;;;;;;;38.07;17.70;;;;;;;-145.18;100.00;46685.78;5078193;28;20039;-68
2023/12/08 06:47:40;;;;;;;30.20;15.50;;;;;;;-145.18;100.00;46674.06;5079104;28;20060;-68
2023/12/08 06:50:06;;;;;;;31.90;15.70;;;;;;;-145.18;100.00;46679.94;5069564;28;20032;-68
2023/12/08 06:52:32;;;;;;;36.33;16.23;;;;;;;-145.18;100.00;46670.16;5081046;28;20085;-68
2023/12/08 06:54:57;;;;;;;38.23;17.13;;;;;;;-145.18;100.00;46683.84;5076493;28;20737;-68
2023/12/08 06:57:23;;;;;;;41.53;17.47;;;;;;;-145.18;100.00;46677.97;5075786;28;20276;-68
2023/12/08 06:59:48;;;;;;;34.20;15.80;;;;;;;-145.18;100.00;46674.06;5080379;28;20044;-68
2023/12/08 07:02:14;;;;;;;36.97;17.03;;;;;;;-145.18;100.00;46672.13;5074509;28;20450;-68
2023/12/08 07:04:40;;;;;;;37.87;17.70;;;;;;;-145.18;100.00;46676.03;5074479;28;20036;-68
2023/12/08 07:07:05;;;;;;;37.67;17.50;;;;;;;-145.18;100.00;46672.13;5076734;28;20277;-68
2023/12/08 07:09:30;;;;;;;38.17;15.90;;;;;;;-145.18;100.00;46670.16;5071878;28;20643;-68
2023/12/08 07:11:56;;;;;;;39.43;16.97;;;;;;;-145.18;100.00;46676.03;5071160;28;20148;-68
2023/12/08 07:14:22;;;;;;;37.63;16.80;;;;;;;-145.18;100.00;46672.13;5081512;28;20456;-68
2023/12/08 07:16:47;;;;;;;46.10;17.67;;;;;;;-145.18;100.00;46683.84;5069025;28;20044;-68
2023/12/08 07:19:12;;;;;;;44.60;17.97;;;;;;;-145.18;100.00;46677.97;5077370;28;20032;-68
2023/12/08 07:21:42;;;;;;;45.20;17.23;;;;;;;-145.18;100.00;46676.03;5072272;28;20029;-68
2023/12/08 07:24:08;;;;;;;40.70;18.07;;;;;;;-145.18;100.00;46672.13;5077464;28;20059;-68
2023/12/08 07:26:33;;;;;;;45.90;19.30;;;;;;;-145.18;100.00;46672.13;5076209;28;20356;-68
2023/12/08 07:28:58;;;;;;;39.80;17.47;;;;;;;-145.18;100.00;46668.22;5096232;28;20055;-68
2023/12/08 07:31:24;;;;;;;47.33;18.73;;;;;;;-145.18;100.00;46679.94;5082292;28;20036;-68
2023/12/08 07:33:49;;;;;;;44.90;18.47;;;;;;;-145.18;100.00;46668.22;5087198;28;20078;-68
2023/12/08 07:36:14;;;;;;;43.70;20.17;;;;;;;-145.18;100.00;46672.13;5082224;28;20431;-68
2023/12/08 07:38:40;;;;;;;44.30;17.43;;;;;;;-145.18;100.00;46670.16;5086237;28;20113;-68
2023/12/08 07:41:06;;;;;;;47.00;20.07;;;;;;;-145.18;100.00;46670.16;5073692;28;20052;-67
2023/12/08 07:43:32;;;;;;;41.27;17.80;;;;;;;-145.18;100.00;46674.06;5083027;28;20035;-68
2023/12/08 07:45:57;;;;;;;38.73;17.90;;;;;;;-145.18;100.00;46668.22;5082143;28;20281;-68
2023/12/08 07:48:23;;;;;;;50.27;19.13;;;;;;;-145.18;100.00;46670.16;5085292;28;20447;-68
2023/12/08 07:50:48;;;;;;;47.20;19.27;;;;;;;-145.18;100.00;46668.22;5086059;28;20403;-68
2023/12/08 07:53:14;;;;;;;52.60;19.90;;;;;;;-145.18;100.00;46664.31;5093931;28;20028;-67
2023/12/08 07:55:39;;;;;;;60.33;19.67;;;;;;;-145.18;100.00;46674.06;5082613;28;20043;-67
2023/12/08 07:58:04;;;;;;;43.90;18.77;;;;;;;-145.18;100.00;46668.22;5081032;28;20032;-66
2023/12/08 08:00:30;;;;;;;51.10;19.57;;;;;;;-145.18;100.00;46668.22;5092182;28;20040;-66
2023/12/08 08:02:55;;;;;;;56.83;20.43;;;;;;;-145.18;100.00;46666.25;5086784;28;20032;-66
2023/12/08 08:05:21;;;;;;;52.10;18.47;;;;;;;-145.18;100.00;46672.13;5094281;28;20356;-66
2023/12/08 08:07:46;;;;;;;49.33;18.87;;;;;;;-145.18;100.00;46672.13;5088535;28;20039;-65
2023/12/08 08:10:12;;;;;;;50.57;19.97;;;;;;;-145.18;100.00;46664.31;5087905;28;20028;-66
2023/12/08 08:12:37;;;;;;;56.90;20.10;;;;;;;-145.18;100.00;46668.22;5087291;28;20040;-66
2023/12/08 08:15:04;;;;;;;49.90;19.43;;;;;;;-145.18;100.00;46660.41;5081013;28;20036;-66
2023/12/08 08:17:29;;;;;;;50.40;21.30;;;;;;;-145.18;100.00;46668.22;5084095;28;20052;-66
2023/12/08 08:19:54;;;;;;;48.93;20.73;;;;;;;-145.18;100.00;46666.25;5084518;28;20669;-66
2023/12/08 08:22:20;;;;;;;66.23;20.00;;;;;;;-145.18;100.00;46666.25;5089000;28;20488;-66
2023/12/08 08:24:46;;;;;;;48.43;21.17;;;;;;;-145.18;100.00;46660.41;5092036;28;20032;-66
2023/12/08 08:27:11;;;;;;;50.43;21.33;;;;;;;-145.18;100.00;46668.22;5084781;28;20480;-66
2023/12/08 08:29:36;;;;;;;57.77;22.83;;;;;;;-145.18;100.00;46674.06;5088966;28;20040;-66
2023/12/08 08:32:02;;;;;;;51.73;20.37;;;;;;;-145.18;100.00;46662.34;5085733;28;20040;-66
2023/12/08 08:34:29;;;;;;;51.73;20.00;;;;;;;-145.18;100.00;46660.41;5081130;28;20036;-66
2023/12/08 08:36:55;;;;;;;49.23;19.47;;;;;;;-145.18;100.00;46670.16;5078453;28;20488;-72
2023/12/08 08:39:20;;;;;;;58.97;20.47;;;;;;;-145.18;100.00;46662.34;5077219;28;20281;-73
2023/12/08 08:41:46;;;;;;;66.10;23.43;;;;;;;-145.18;100.00;46662.34;5081765;28;20073;-73
2023/12/08 08:44:12;;;;;;;61.53;19.93;;;;;;;-145.18;100.00;46664.31;5081384;28;20491;-73
2023/12/08 08:46:39;;;;;;;57.33;20.60;;;;;;;-145.18;100.00;46660.41;5085231;28;20264;-73
2023/12/08 08:49:05;;;;;;;60.00;21.27;;;;;;;-145.18;100.00;46660.41;5074323;28;20040;-72
2023/12/08 08:51:30;;;;;;;64.27;20.97;;;;;;;-145.18;100.00;46662.34;5080521;28;20272;-72
2023/12/08 08:53:55;;;;;;;53.90;21.23;;;;;;;-145.18;100.00;46662.34;5081714;28;20043;-72
2023/12/08 08:56:22;;;;;;;57.23;21.93;;;;;;;-145.18;100.00;46662.34;5087808;28;20096;-72
2023/12/08 08:58:47;;;;;;;51.87;21.23;;;;;;;-145.18;100.00;46664.31;5079043;28;20044;-72
2023/12/08 09:01:12;;;;;;;55.27;21.47;;;;;;;-145.18;100.00;46666.25;5076543;28;20283;-72
2023/12/08 09:03:38;;;;;;;61.03;21.70;;;;;;;-145.18;100.00;46656.50;5084266;28;20043;-73
2023/12/08 09:06:04;;;;;;;64.50;23.07;;;;;;;-145.18;100.00;46658.44;5086146;28;20047;-72
2023/12/08 09:08:29;;;;;;;59.50;22.37;;;;;;;-145.18;100.00;46656.50;5077356;28;20029;-73
2023/12/08 09:10:55;;;;;;;72.20;23.60;;;;;;;-145.18;100.00;46662.34;5087715;28;20069;-72
2023/12/08 09:13:23;;;;;;;67.97;23.63;;;;;;;-145.18;100.00;46662.34;5084596;28;20075;-72
2023/12/08 09:15:48;;;;;;;76.83;24.63;;;;;;;-145.18;100.00;46658.44;5089945;28;20032;-72
2023/12/08 09:18:14;;;;;;;84.33;26.23;;;;;;;-145.18;100.00;46662.34;5080087;28;20265;-72
2023/12/08 09:20:40;;;;;;;66.20;23.47;;;;;;;-145.18;100.00;46654.53;5078559;28;20059;-72
2023/12/08 09:23:06;;;;;;;72.20;25.13;;;;;;;-145.18;100.00;46658.44;5085082;28;20074;-72
2023/12/08 09:25:32;;;;;;;71.23;23.50;;;;;;;-145.18;100.00;46656.50;5079705;28;20755;-72
2023/12/08 09:27:57;;;;;;;75.20;23.47;;;;;;;-145.18;100.00;46656.50;5092917;28;20449;-72
2023/12/08 09:30:23;;;;;;;73.80;23.50;;;;;;;-145.18;100.00;46652.59;5079750;28;20488;-72
2023/12/08 09:32:50;;;;;;;76.17;24.97;;;;;;;-145.18;100.00;46658.44;5078487;28;20032;-72
2023/12/08 09:35:19;;;;;;;74.23;23.33;;;;;;;-145.18;100.00;46656.50;5080661;28;20097;-72
2023/12/08 09:37:44;;;;;;;78.40;26.03;;;;;;;-145.18;100.00;46654.53;5075001;28;20276;-72
2023/12/08 09:40:13;;;;;;;79.87;24.53;;;;;;;-145.18;100.00;46654.53;5091390;28;20276;-73
2023/12/08 09:42:44;;;;;;;81.57;26.17;;;;;;;-145.18;100.00;46652.59;5086488;28;20404;-74
2023/12/08 09:45:10;;;;;;;92.17;25.67;;;;;;;-145.18;100.00;46654.53;5076951;28;20280;-73
2023/12/08 09:47:36;;;;;;;62.47;23.77;;;;;;;-145.18;100.00;46652.59;5075398;28;20272;-71
2023/12/08 09:50:09;;;;;;;85.77;25.00;;;;;;;-145.18;100.00;46650.63;5090426;28;20032;-73
2023/12/08 09:52:35;;;;;;;77.77;24.47;;;;;;;-145.18;100.00;46652.59;5089282;28;20492;-73
2023/12/08 09:55:01;;;;;;;83.90;25.50;;;;;;;-145.18;100.00;46648.69;5063542;28;20277;-73
2023/12/08 09:57:33;;;;;;;81.70;24.50;;;;;;;-145.18;100.00;46648.69;5074328;28;20471;-73
2023/12/08 10:00:02;;;;;;;103.60;28.53;;;;;;;-145.18;100.00;46644.78;5078321;28;20273;-74
2023/12/08 10:02:28;;;;;;;92.47;26.27;;;;;;;-145.18;100.00;46646.72;5086202;28;20454;-72
2023/12/08 10:04:53;;;;;;;88.23;25.77;;;;;;;-145.18;100.00;46644.78;5072424;28;20269;-72
2023/12/08 10:07:20;;;;;;;99.10;25.87;;;;;;;-145.18;100.00;46642.81;5085603;28;20396;-66
2023/12/08 10:09:46;;;;;;;85.50;25.80;;;;;;;-145.18;100.00;46642.81;5083895;28;20082;-67
2023/12/08 10:12:12;;;;;;;79.73;24.73;;;;;;;-145.18;100.00;46646.72;5072026;28;20285;-66
2023/12/08 10:15:00;;;;;;;86.63;24.53;;;;;;;-145.18;100.00;46642.81;5077498;28;20040;-66
2023/12/08 10:17:26;;;;;;;91.07;26.23;;;;;;;-145.18;100.00;46640.88;5081742;28;20276;-67
2023/12/08 10:20:11;;;;;;;77.27;23.20;;;;;;;-145.18;100.00;46644.78;5085934;28;20272;-67
2023/12/08 10:22:48;;;;;;;82.20;25.47;;;;;;;-145.18;100.00;46638.91;5084901;28;20050;-67
2023/12/08 10:25:18;;;;;;;89.60;24.47;;;;;;;-145.18;100.00;46635.00;5084620;28;20629;-67
2023/12/08 10:27:52;;;;;;;92.47;27.53;;;;;;;-145.18;100.00;46635.00;5078326;28;20356;-67
2023/12/08 10:30:19;;;;;;;87.73;26.40;;;;;;;-145.18;100.00;46636.94;5084461;28;20277;-67
2023/12/08 10:32:45;;;;;;;93.10;27.23;;;;;;;-145.18;100.00;46633.06;5080397;28;20285;-67
2023/12/08 10:35:11;;;;;;;78.20;26.17;;;;;;;-145.18;100.00;46635.00;5075956;28;20277;-67
2023/12/08 10:37:38;;;;;;;92.10;24.67;;;;;;;-145.18;100.00;46635.00;5071177;28;20310;-67
2023/12/08 10:40:17;;;;;;;91.47;26.27;;;;;;;-145.18;100.00;46631.09;5083957;28;20268;-67
2023/12/08 10:42:44;;;;;;;86.97;24.43;;;;;;;-145.18;100.00;46635.00;5082351;28;20265;-67
2023/12/08 10:45:13;;;;;;;89.63;25.63;;;;;;;-145.18;100.00;46629.13;5087109;28;20272;-67
2023/12/08 10:47:44;;;;;;;96.43;28.57;;;;;;;-145.18;100.00;46627.19;5072752;28;20352;-67
2023/12/08 10:50:12;;;;;;;88.57;26.27;;;;;;;-145.18;100.00;46627.19;5080316;28;20696;-67